createdAt,value
2019-05-02T00:02:23.940Z,13.20
2019-05-02T00:04:55.769Z,13.30
2019-05-02T00:07:23.433Z,13.70
2019-05-02T00:09:53.451Z,14.20
2019-05-02T00:12:23.428Z,14.97
2019-05-02T00:14:56.532Z,13.87
2019-05-02T00:17:27.521Z,14.50
2019-05-02T00:19:57.157Z,14.13
2019-05-02T00:22:26.771Z,14.07
2019-05-02T00:24:56.381Z,12.63
2019-05-02T00:27:25.874Z,14.20
2019-05-02T00:29:58.781Z,13.03
2019-05-02T00:32:26.832Z,13.27
2019-05-02T00:34:57.657Z,13.57
2019-05-02T00:37:27.281Z,13.17
2019-05-02T00:39:56.951Z,13.10
2019-05-02T00:42:26.594Z,13.73
2019-05-02T00:44:57.113Z,13.20
2019-05-02T00:47:28.366Z,13.20
2019-05-02T00:49:58.074Z,13.50
2019-05-02T00:52:27.657Z,11.97
2019-05-02T00:54:58.696Z,13.13
2019-05-02T00:57:28.534Z,12.17
2019-05-02T00:59:57.928Z,11.83
2019-05-02T01:02:29.174Z,11.20
2019-05-02T01:05:03.134Z,12.17
2019-05-02T01:07:30.546Z,12.33
2019-05-02T01:10:00.163Z,12.37
2019-05-02T01:12:29.655Z,12.10
2019-05-02T01:15:03.197Z,12.57
2019-05-02T01:17:30.925Z,12.03
2019-05-02T01:20:01.505Z,12.10
2019-05-02T01:22:31.045Z,11.83
2019-05-02T01:25:00.667Z,12.77
2019-05-02T01:27:35.981Z,13.20
2019-05-02T01:30:06.006Z,12.93
2019-05-02T01:32:37.438Z,12.63
2019-05-02T01:35:09.258Z,12.83
2019-05-02T01:37:40.372Z,11.60
2019-05-02T01:40:17.545Z,12.07
2019-05-02T01:42:44.499Z,12.13
2019-05-02T01:45:15.538Z,12.10
2019-05-02T01:47:45.150Z,13.37
2019-05-02T01:50:14.775Z,11.67
2019-05-02T01:52:44.271Z,13.10
2019-05-02T01:55:17.160Z,13.70
2019-05-02T01:57:46.233Z,13.67
2019-05-02T02:00:16.363Z,13.03
2019-05-02T02:02:45.783Z,13.23
2019-05-02T02:05:15.326Z,13.40
2019-05-02T02:07:44.813Z,13.93
2019-05-02T02:10:14.909Z,13.43
2019-05-02T02:13:02.775Z,14.27
2019-05-02T02:15:16.973Z,14.83
2019-05-02T02:17:46.854Z,14.40
2019-05-02T02:20:19.457Z,14.10
2019-05-02T02:22:50.552Z,13.87
2019-05-02T02:25:24.714Z,14.33
2019-05-02T02:27:54.900Z,14.03
2019-05-02T02:30:26.668Z,15.23
2019-05-02T02:33:00.421Z,14.60
2019-05-02T02:35:28.762Z,14.63
2019-05-02T02:37:58.496Z,14.50
2019-05-02T02:40:33.534Z,15.27
2019-05-02T02:43:12.698Z,15.80
2019-05-02T02:45:35.294Z,14.13
2019-05-02T02:48:04.945Z,14.47
2019-05-02T02:50:36.663Z,15.40
2019-05-02T02:53:05.615Z,15.07
2019-05-02T02:55:35.261Z,15.53
2019-05-02T02:58:06.605Z,14.60
2019-05-02T03:00:41.416Z,15.17
2019-05-02T03:03:07.970Z,14.77
2019-05-02T03:05:37.477Z,15.23
2019-05-02T03:08:07.330Z,15.97
2019-05-02T03:10:39.906Z,14.97
2019-05-02T03:13:15.027Z,16.17
2019-05-02T03:15:42.839Z,14.70
2019-05-02T03:18:12.472Z,15.97
2019-05-02T03:20:42.224Z,15.90
2019-05-02T03:23:15.063Z,15.87
2019-05-02T03:25:50.446Z,16.13
2019-05-02T03:28:18.543Z,16.47
2019-05-02T03:30:47.158Z,16.03
2019-05-02T03:33:17.087Z,16.43
2019-05-02T03:35:49.184Z,16.43
2019-05-02T03:38:18.019Z,16.77
2019-05-02T03:40:48.359Z,16.70
2019-05-02T03:43:19.039Z,16.63
2019-05-02T03:45:49.179Z,16.80
2019-05-02T03:48:25.845Z,16.87
2019-05-02T03:50:51.285Z,17.43
2019-05-02T03:53:24.974Z,17.10
2019-05-02T03:55:53.579Z,16.40
2019-05-02T03:58:23.317Z,17.47
2019-05-02T04:01:00.392Z,17.23
2019-05-02T04:03:24.441Z,17.10
2019-05-02T04:05:54.664Z,17.60
2019-05-02T04:08:24.888Z,18.23
2019-05-02T04:10:59.605Z,17.87
2019-05-02T04:13:30.076Z,17.50
2019-05-02T04:16:00.564Z,17.93
2019-05-02T04:18:30.703Z,18.33
2019-05-02T04:21:01.423Z,17.83
2019-05-02T04:23:30.996Z,18.97
2019-05-02T04:26:06.911Z,19.60
2019-05-02T04:28:33.733Z,19.60
2019-05-02T04:31:03.176Z,19.00
2019-05-02T04:33:35.066Z,20.47
2019-05-02T04:36:14.033Z,20.87
2019-05-02T04:38:46.553Z,20.03
2019-05-02T04:41:09.369Z,20.30
2019-05-02T04:43:43.095Z,20.93
2019-05-02T04:46:18.002Z,22.17
2019-05-02T04:48:48.279Z,22.40
2019-05-02T04:51:16.300Z,21.97
2019-05-02T04:53:45.430Z,22.43
2019-05-02T04:56:14.707Z,21.37
2019-05-02T04:58:44.277Z,24.20
2019-05-02T05:01:13.669Z,23.37
2019-05-02T05:03:43.086Z,23.07
2019-05-02T05:06:12.677Z,24.97
2019-05-02T05:08:42.301Z,25.67
2019-05-02T05:11:13.923Z,25.73
2019-05-02T05:13:42.996Z,25.43
2019-05-02T05:16:15.729Z,26.13
2019-05-02T05:18:48.683Z,26.97
2019-05-02T05:21:17.621Z,26.43
2019-05-02T05:23:51.747Z,27.87
2019-05-02T05:26:19.020Z,28.37
2019-05-02T05:28:48.561Z,31.25
2019-05-02T05:31:24.125Z,29.13
2019-05-02T05:34:04.331Z,30.47
2019-05-02T05:36:34.240Z,30.97
2019-05-02T05:39:08.560Z,32.00
2019-05-02T05:41:37.800Z,32.40
2019-05-02T05:44:23.347Z,34.13
2019-05-02T05:46:51.920Z,34.23
2019-05-02T05:49:21.872Z,36.60
2019-05-02T05:51:54.511Z,34.73
2019-05-02T05:54:38.400Z,37.07
2019-05-02T05:57:21.240Z,37.43
2019-05-02T05:59:50.807Z,38.77
2019-05-02T06:02:20.162Z,42.17
2019-05-02T06:04:50.259Z,43.87
2019-05-02T06:07:20.282Z,52.23
2019-05-02T06:09:49.836Z,44.60
2019-05-02T06:12:19.195Z,46.40
2019-05-02T06:14:49.625Z,47.73
2019-05-02T06:17:23.088Z,49.03
2019-05-02T06:19:53.613Z,48.03
2019-05-02T06:22:24.453Z,44.97
2019-05-02T06:24:53.338Z,53.57
2019-05-02T06:27:26.009Z,46.53
2019-05-02T06:29:56.164Z,40.20
2019-05-02T06:32:24.923Z,40.50
2019-05-02T06:34:54.405Z,42.13
2019-05-02T06:37:23.733Z,40.33
2019-05-02T06:39:54.234Z,40.67
2019-05-02T06:42:27.704Z,38.13
2019-05-02T06:44:59.780Z,36.33
2019-05-02T06:47:26.521Z,37.63
2019-05-02T06:49:56.271Z,32.10
2019-05-02T06:52:32.837Z,29.27
2019-05-02T06:54:59.966Z,33.50
2019-05-02T06:57:30.469Z,31.47
2019-05-02T07:00:00.017Z,24.57
2019-05-02T07:02:33.600Z,23.83
2019-05-02T07:05:00.665Z,24.00
2019-05-02T07:07:36.431Z,39.43
2019-05-02T07:10:02.428Z,21.20
2019-05-02T07:12:31.853Z,25.00
2019-05-02T07:15:01.935Z,24.83
2019-05-02T07:17:36.459Z,21.27
2019-05-02T07:20:08.195Z,21.43
2019-05-02T07:22:38.806Z,21.93
2019-05-02T07:25:10.277Z,20.93
2019-05-02T07:27:39.810Z,22.23
2019-05-02T07:30:11.180Z,19.27
2019-05-02T07:32:40.615Z,21.00
2019-05-02T07:35:11.944Z,18.43
2019-05-02T07:37:44.095Z,19.50
2019-05-02T07:40:17.001Z,25.63
2019-05-02T07:42:44.072Z,18.27
2019-05-02T07:45:14.346Z,19.53
2019-05-02T07:47:43.746Z,18.33
2019-05-02T07:50:13.933Z,20.03
2019-05-02T07:52:43.461Z,18.13
2019-05-02T07:55:12.861Z,16.77
2019-05-02T07:57:42.291Z,17.17
2019-05-02T08:00:13.857Z,17.80
2019-05-02T08:02:43.299Z,15.13
2019-05-02T08:05:15.711Z,16.07
2019-05-02T08:07:45.392Z,16.77
2019-05-02T08:10:21.699Z,17.53
2019-05-02T08:12:47.519Z,12.90
2019-05-02T08:15:17.033Z,14.33
2019-05-02T08:17:53.162Z,17.17
2019-05-02T08:20:19.216Z,17.13
2019-05-02T08:22:50.990Z,14.30
2019-05-02T08:25:20.473Z,15.97
2019-05-02T08:27:51.779Z,12.90
2019-05-02T08:30:23.128Z,14.87
2019-05-02T08:32:52.506Z,26.27
2019-05-02T08:35:21.931Z,13.83
2019-05-02T08:37:51.439Z,19.85
2019-05-02T08:40:20.853Z,14.10
2019-05-02T08:42:50.434Z,15.67
2019-05-02T08:45:20.070Z,14.67
2019-05-02T08:47:49.775Z,13.53
2019-05-02T08:50:19.378Z,16.43
2019-05-02T08:52:48.872Z,15.00
2019-05-02T08:55:18.334Z,15.63
2019-05-02T08:57:47.820Z,11.90
2019-05-02T09:00:17.840Z,13.40
2019-05-02T09:02:47.333Z,13.93
2019-05-02T09:05:17.111Z,17.10
2019-05-02T09:07:47.542Z,15.13
2019-05-02T09:10:18.825Z,29.80
2019-05-02T09:12:48.296Z,12.63
2019-05-02T09:15:18.215Z,13.90
2019-05-02T09:17:53.036Z,19.63
2019-05-02T09:20:20.940Z,29.07
2019-05-02T09:22:54.056Z,14.30
2019-05-02T09:25:22.081Z,15.70
2019-05-02T09:27:52.658Z,23.73
2019-05-02T09:30:25.650Z,21.97
2019-05-02T09:32:57.215Z,21.33
2019-05-02T09:35:25.073Z,13.60
2019-05-02T09:37:54.584Z,11.73
2019-05-02T09:40:24.243Z,12.10
2019-05-02T09:43:00.010Z,13.90
2019-05-02T09:45:27.749Z,15.30
2019-05-02T09:48:05.224Z,11.90
2019-05-02T09:50:32.242Z,16.43
2019-05-02T09:53:02.080Z,14.60
2019-05-02T09:55:31.972Z,15.25
2019-05-02T09:58:02.714Z,14.45
2019-05-02T10:00:36.190Z,14.58
2019-05-02T10:03:05.822Z,17.60
2019-05-02T10:05:35.442Z,14.63
2019-05-02T10:08:06.870Z,12.58
2019-05-02T10:10:37.103Z,13.60
2019-05-02T10:13:09.170Z,12.60
2019-05-02T10:15:38.763Z,11.78
2019-05-02T10:18:11.482Z,10.45
2019-05-02T10:20:41.728Z,8.53
2019-05-02T10:23:12.105Z,11.60
2019-05-02T10:25:46.783Z,11.53
2019-05-02T10:28:15.525Z,11.38
2019-05-02T10:30:47.283Z,14.10
2019-05-02T10:33:16.539Z,13.28
2019-05-02T10:35:47.602Z,13.25
2019-05-02T10:38:19.400Z,11.93
2019-05-02T10:40:56.513Z,13.70
2019-05-02T10:43:22.267Z,14.15
2019-05-02T10:45:56.414Z,12.37
2019-05-02T10:48:28.479Z,10.38
2019-05-02T10:50:57.758Z,11.97
2019-05-02T10:53:27.470Z,11.73
2019-05-02T10:55:56.831Z,9.98
2019-05-02T10:58:31.375Z,8.93
2019-05-02T11:00:57.464Z,17.60
2019-05-02T11:03:28.865Z,9.58
2019-05-02T11:06:03.633Z,10.85
2019-05-02T11:08:31.957Z,9.85
2019-05-02T11:11:05.950Z,8.90
2019-05-02T11:13:34.187Z,11.63
2019-05-02T11:16:05.554Z,10.50
2019-05-02T11:18:42.018Z,9.23
2019-05-02T11:21:09.674Z,6.60
2019-05-02T11:23:39.179Z,8.23
2019-05-02T11:26:08.904Z,7.72
2019-05-02T11:28:38.336Z,6.37
2019-05-02T11:31:10.119Z,7.55
2019-05-02T11:33:38.931Z,9.13
2019-05-02T11:36:08.485Z,9.20
2019-05-02T11:38:48.157Z,7.35
2019-05-02T11:41:09.191Z,8.68
2019-05-02T11:43:42.424Z,7.35
2019-05-02T11:46:09.783Z,9.08
2019-05-02T11:48:39.271Z,8.25
2019-05-02T11:51:12.701Z,9.10
2019-05-02T11:53:41.994Z,7.62
2019-05-02T11:56:13.480Z,9.73
2019-05-02T11:58:48.041Z,10.90
2019-05-02T12:01:20.194Z,7.03
2019-05-02T12:03:48.622Z,8.53
2019-05-02T12:06:19.775Z,8.98
2019-05-02T12:08:49.554Z,9.17
2019-05-02T12:11:19.320Z,7.65
2019-05-02T12:13:52.748Z,7.33
2019-05-02T12:16:20.135Z,8.35
2019-05-02T12:18:49.845Z,8.77
2019-05-02T12:21:19.453Z,7.12
2019-05-02T12:23:48.930Z,7.80
2019-05-02T12:26:18.392Z,8.03
2019-05-02T12:28:48.068Z,6.72
2019-05-02T12:31:22.154Z,6.85
2019-05-02T12:33:51.707Z,6.78
2019-05-02T12:36:22.749Z,6.72
2019-05-02T12:38:52.847Z,7.62
2019-05-02T12:41:25.141Z,6.40
2019-05-02T12:43:53.655Z,7.65
2019-05-02T12:46:23.199Z,7.53
2019-05-02T12:48:52.652Z,8.75
2019-05-02T12:51:22.668Z,7.45
2019-05-02T12:53:52.928Z,6.60
2019-05-02T12:56:24.071Z,5.92
2019-05-02T12:58:53.698Z,6.55
2019-05-02T13:01:23.243Z,7.95
2019-05-02T13:03:54.358Z,8.13
2019-05-02T13:06:23.801Z,8.10
2019-05-02T13:08:53.387Z,8.23
2019-05-02T13:11:29.097Z,5.67
2019-05-02T13:13:58.913Z,6.78
2019-05-02T13:16:28.305Z,8.10
2019-05-02T13:19:04.476Z,8.85
2019-05-02T13:21:40.067Z,8.33
2019-05-02T13:24:07.507Z,7.80
2019-05-02T13:26:34.994Z,7.60
2019-05-02T13:29:04.689Z,8.13
2019-05-02T13:31:35.984Z,8.70
2019-05-02T13:34:11.965Z,9.45
2019-05-02T13:36:42.333Z,7.05
2019-05-02T13:39:16.829Z,6.70
2019-05-02T13:41:46.635Z,13.80
2019-05-02T13:44:18.230Z,4.95
2019-05-02T13:46:47.791Z,4.70
2019-05-02T13:49:17.508Z,6.20
2019-05-02T13:51:47.187Z,8.00
2019-05-02T13:54:16.837Z,7.17
2019-05-02T13:56:48.227Z,5.08
2019-05-02T13:59:22.245Z,6.08
2019-05-02T14:01:53.875Z,7.22
2019-05-02T14:04:24.127Z,4.92
2019-05-02T14:06:53.940Z,4.65
2019-05-02T14:09:25.276Z,5.12
2019-05-02T14:11:58.105Z,5.42
2019-05-02T14:14:33.059Z,6.87
2019-05-02T14:17:03.123Z,4.97
2019-05-02T14:19:32.870Z,4.87
2019-05-02T14:22:03.462Z,6.95
2019-05-02T14:24:33.054Z,6.65
2019-05-02T14:27:02.861Z,5.20
2019-05-02T14:29:33.887Z,5.47
2019-05-02T14:32:05.047Z,7.33
2019-05-02T14:34:34.441Z,5.33
2019-05-02T14:37:04.069Z,3.95
2019-05-02T14:39:33.682Z,4.92
2019-05-02T14:42:03.393Z,6.10
2019-05-02T14:44:57.982Z,6.45
2019-05-02T14:47:04.217Z,5.90
2019-05-02T14:49:33.752Z,7.15
2019-05-02T14:52:06.969Z,5.70
2019-05-02T14:54:38.046Z,8.18
2019-05-02T14:57:07.293Z,7.65
2019-05-02T14:59:36.767Z,12.35
2019-05-02T15:02:07.993Z,7.10
2019-05-02T15:04:38.072Z,7.55
2019-05-02T15:07:08.817Z,7.12
2019-05-02T15:09:38.387Z,7.35
2019-05-02T15:12:16.006Z,7.75
2019-05-02T15:14:39.215Z,7.28
2019-05-02T15:17:08.957Z,7.12
2019-05-02T15:19:38.339Z,6.53
2019-05-02T15:22:07.883Z,8.35
2019-05-02T15:24:39.192Z,7.42
2019-05-02T15:27:17.360Z,6.03
2019-05-02T15:29:41.821Z,8.20
2019-05-02T15:32:12.827Z,6.90
2019-05-02T15:34:47.810Z,7.85
2019-05-02T15:37:16.875Z,6.35
2019-05-02T15:42:17.878Z,7.35
2019-05-02T15:44:47.553Z,6.62
2019-05-02T15:47:16.945Z,7.97
2019-05-02T15:49:46.435Z,8.20
2019-05-02T15:52:18.865Z,9.80
2019-05-02T15:54:55.475Z,7.25
2019-05-02T15:57:24.199Z,7.62
2019-05-02T15:59:51.825Z,5.80
2019-05-02T16:02:26.507Z,6.92
2019-05-02T16:04:56.950Z,7.67
2019-05-02T16:07:25.352Z,9.25
2019-05-02T16:09:59.969Z,7.78
2019-05-02T16:12:31.543Z,7.42
2019-05-02T16:14:58.320Z,7.67
2019-05-02T16:17:29.289Z,8.68
2019-05-02T16:20:07.619Z,7.90
2019-05-02T16:22:33.324Z,8.93
2019-05-02T16:25:03.402Z,8.65
2019-05-02T16:27:34.645Z,8.58
2019-05-02T16:30:08.535Z,7.95
2019-05-02T16:32:39.151Z,8.25
2019-05-02T16:35:15.292Z,9.67
2019-05-02T16:37:41.987Z,9.40
2019-05-02T16:40:12.087Z,9.58
2019-05-02T16:42:42.324Z,9.58
2019-05-02T16:45:13.212Z,9.80
2019-05-02T16:47:42.902Z,10.55
2019-05-02T16:50:13.086Z,11.68
2019-05-02T16:52:47.086Z,11.78
2019-05-02T16:55:21.157Z,12.10
2019-05-02T16:57:46.377Z,11.83
2019-05-02T17:00:18.083Z,12.05
2019-05-02T17:02:47.645Z,10.90
2019-05-02T17:05:17.852Z,10.48
2019-05-02T17:07:48.878Z,10.38
2019-05-02T17:10:20.043Z,11.10
2019-05-02T17:12:55.433Z,11.43
2019-05-02T17:15:26.250Z,12.00
2019-05-02T17:17:54.366Z,11.17
2019-05-02T17:20:24.101Z,10.90
2019-05-02T17:23:02.140Z,11.60
2019-05-02T17:25:24.913Z,11.50
2019-05-02T17:28:01.262Z,11.90
2019-05-02T17:30:25.942Z,11.33
2019-05-02T17:32:55.330Z,11.97
2019-05-02T17:35:24.846Z,11.90
2019-05-02T17:37:54.554Z,11.47
2019-05-02T17:40:26.104Z,12.40
2019-05-02T17:42:57.118Z,12.20
2019-05-02T17:45:26.518Z,11.90
2019-05-02T17:47:56.065Z,12.10
2019-05-02T17:50:27.250Z,13.10
2019-05-02T17:53:01.035Z,13.57
2019-05-02T17:55:32.832Z,13.90
2019-05-02T17:58:04.644Z,13.67
2019-05-02T18:00:34.650Z,23.73
2019-05-02T18:03:04.306Z,16.67
2019-05-02T18:05:35.764Z,16.27
2019-05-02T18:08:10.974Z,15.20
2019-05-02T18:10:37.241Z,19.30
2019-05-02T18:13:06.926Z,19.43
2019-05-02T18:15:36.476Z,18.03
2019-05-02T18:18:07.828Z,15.40
2019-05-02T18:20:42.045Z,12.03
2019-05-02T18:23:08.447Z,12.70
2019-05-02T18:25:37.946Z,12.93
2019-05-02T18:28:07.545Z,12.20
2019-05-02T18:30:37.060Z,11.97
2019-05-02T18:33:07.349Z,11.17
2019-05-02T18:35:37.298Z,11.13
2019-05-02T18:38:08.265Z,10.77
2019-05-02T18:40:37.667Z,11.33
2019-05-02T18:43:07.094Z,11.83
2019-05-02T18:45:36.526Z,11.40
2019-05-02T18:48:06.902Z,12.30
2019-05-02T18:50:42.535Z,12.60
2019-05-02T18:53:11.415Z,12.57
2019-05-02T18:55:42.183Z,12.37
2019-05-02T18:58:13.047Z,12.87
2019-05-02T19:00:42.766Z,13.50
2019-05-02T19:03:17.106Z,13.57
2019-05-02T19:05:46.695Z,13.47
2019-05-02T19:08:28.343Z,13.33
2019-05-02T19:11:02.593Z,13.43
2019-05-02T19:13:18.775Z,13.97
2019-05-02T19:15:49.063Z,14.83
2019-05-02T19:18:19.727Z,14.87
2019-05-02T19:20:52.510Z,19.63
2019-05-02T19:23:22.633Z,26.97
2019-05-02T19:25:52.827Z,21.40
2019-05-02T19:28:24.218Z,16.37
2019-05-02T19:30:57.253Z,24.07
2019-05-02T19:33:25.455Z,25.77
2019-05-02T19:35:55.201Z,28.63
2019-05-02T19:38:26.348Z,19.33
2019-05-02T19:40:58.154Z,18.33
2019-05-02T19:43:28.284Z,42.43
2019-05-02T19:45:57.975Z,66.37
2019-05-02T19:48:32.035Z,34.97
2019-05-02T19:50:58.856Z,16.20
2019-05-02T19:53:28.396Z,13.03
2019-05-02T19:56:01.480Z,13.67
2019-05-02T19:58:29.548Z,14.27
2019-05-02T20:00:59.018Z,13.53
2019-05-02T20:03:28.684Z,13.17
2019-05-02T20:06:02.283Z,13.50
2019-05-02T20:08:29.454Z,17.77
2019-05-02T20:11:01.939Z,14.87
2019-05-02T20:13:32.630Z,13.30
2019-05-02T20:16:05.777Z,14.87
2019-05-02T20:18:42.412Z,24.80
2019-05-02T20:21:12.122Z,14.83
2019-05-02T20:23:39.672Z,19.23
2019-05-02T20:26:14.580Z,15.87
2019-05-02T20:28:42.140Z,16.00
2019-05-02T20:31:12.379Z,18.00
2019-05-02T20:33:43.049Z,33.93
2019-05-02T20:36:12.922Z,19.10
2019-05-02T20:38:42.447Z,16.40
2019-05-02T20:41:12.731Z,18.63
2019-05-02T20:43:44.786Z,18.20
2019-05-02T20:46:13.581Z,19.83
2019-05-02T20:48:43.204Z,16.90
2019-05-02T20:51:12.784Z,17.80
2019-05-02T20:53:42.298Z,21.77
2019-05-02T20:56:12.374Z,17.97
2019-05-02T20:58:42.168Z,20.97
2019-05-02T21:01:12.594Z,17.77
2019-05-02T21:03:42.898Z,17.87
2019-05-02T21:06:14.229Z,18.27
2019-05-02T21:08:46.618Z,18.33
2019-05-02T21:11:16.202Z,19.80
2019-05-02T21:13:46.018Z,20.30
2019-05-02T21:16:15.823Z,21.23
2019-05-02T21:18:45.641Z,22.90
2019-05-02T21:21:15.261Z,21.53
2019-05-02T21:23:47.677Z,24.53
2019-05-02T21:26:15.998Z,20.63
2019-05-02T21:28:46.233Z,20.70
2019-05-02T21:31:16.036Z,18.93
2019-05-02T21:33:45.637Z,18.90
2019-05-02T21:36:15.129Z,19.40
2019-05-02T21:38:44.600Z,18.90
2019-05-02T21:41:14.871Z,20.00
2019-05-02T21:43:44.445Z,19.57
2019-05-02T21:46:13.978Z,18.90
2019-05-02T21:48:43.591Z,18.97
2019-05-02T21:51:14.933Z,19.23
2019-05-02T21:53:55.127Z,19.70
2019-05-02T21:56:19.051Z,20.33
2019-05-02T21:58:51.916Z,19.10
2019-05-02T22:01:22.235Z,20.30
2019-05-02T22:03:51.781Z,20.97
2019-05-02T22:06:22.671Z,19.90
2019-05-02T22:08:52.373Z,21.70
2019-05-02T22:11:22.583Z,20.47
2019-05-02T22:13:52.351Z,32.30
2019-05-02T22:16:21.966Z,21.23
2019-05-02T22:18:52.189Z,21.37
2019-05-02T22:21:22.803Z,20.63
2019-05-02T22:23:52.416Z,21.43
2019-05-02T22:26:22.109Z,21.40
2019-05-02T22:28:53.631Z,21.13
2019-05-02T22:31:22.987Z,20.93
2019-05-02T22:33:52.846Z,21.57
2019-05-02T22:36:22.711Z,21.03
2019-05-02T22:38:54.159Z,22.10
2019-05-02T22:41:23.761Z,20.83
2019-05-02T22:43:53.269Z,21.53
2019-05-02T22:46:24.403Z,21.47
2019-05-02T22:48:55.042Z,21.93
2019-05-02T22:51:24.547Z,22.07
2019-05-02T22:53:54.220Z,22.37
2019-05-02T22:56:23.759Z,22.00
2019-05-02T22:58:53.373Z,22.13
2019-05-02T23:01:22.873Z,23.47
2019-05-02T23:03:52.519Z,23.97
2019-05-02T23:06:22.176Z,25.00
2019-05-02T23:08:52.475Z,25.17
2019-05-02T23:11:24.504Z,24.13
2019-05-02T23:13:53.367Z,23.93
2019-05-02T23:16:22.752Z,22.27
2019-05-02T23:18:52.378Z,23.17
2019-05-02T23:21:21.971Z,22.87
2019-05-02T23:23:52.351Z,23.00
2019-05-02T23:26:23.753Z,22.63
2019-05-02T23:28:55.002Z,24.07
2019-05-02T23:31:24.532Z,23.20
2019-05-02T23:33:55.644Z,24.33
2019-05-02T23:36:26.021Z,23.63
2019-05-02T23:38:55.505Z,22.37
2019-05-02T23:41:24.904Z,23.83
2019-05-02T23:43:54.386Z,24.13
2019-05-02T23:46:24.088Z,23.33
2019-05-02T23:48:53.694Z,24.33
2019-05-02T23:51:23.124Z,23.50
2019-05-02T23:53:52.864Z,23.70
2019-05-02T23:56:23.643Z,22.97
2019-05-02T23:58:53.439Z,23.40
